METAR Data
IDs: Format: Raw Decoded Include TAF

Data at: 1010 UTC 19 Jan 2019

KCWF 190955Z 20015G26KT 7SM OVC011 20/18 A2974 RMK AO2 LTG DSNT W THRU N T02000183 PWINO
KCWF 190935Z 19014G23KT 7SM BKN011 OVC014 20/18 A2973 RMK AO2 LTG DSNT W THRU NE T01980183 PWINO
KCWF 190915Z 20015G24KT 5SM BKN009 OVC014 20/18 A2975 RMK AO2 LTG DSNT W AND NW T02000185 PWINO
KCWF 190855Z 19015G21KT 7SM OVC009 20/18 A2975 RMK AO2 LTG DSNT W THRU NE T01980185 PWINO
KCWF 190835Z 19015G23KT 7SM OVC009 20/19 A2976 RMK AO2 LTG DSNT N AND W T02000186 PWINO
KCWF 190815Z 20016G23KT 7SM OVC009 20/19 A2977 RMK AO2 LTG DSNT N T02020188 PWINO
KCWF 190755Z 19016G25KT 7SM OVC007 20/19 A2978 RMK AO2 LTG DSNT NW T02020189 PWINO
KCWF 190735Z 19016G26KT 7SM VCTS OVC007 20/19 A2980 RMK AO2 LTG DSNT N AND NW T02010188
KCWF 190715Z 19014G23KT 7SM OVC007 20/19 A2980 RMK AO2 LTG DSNT NW THRU NE T02000188 PWINO
KCWF 190655Z 19014G22KT 7SM OVC007 20/19 A2982 RMK AO2 LTG DSNT N AND NW T02000188 PWINO
KCWF 190635Z 19015G21KT 7SM VCTS OVC007 20/19 A2983 RMK AO2 LTG DSNT W THRU N T02000187
KCWF 190615Z 19015G19KT 7SM OVC007 20/19 A2984 RMK AO2 LTG DSNT NW THRU NE T02000188 PWINO
KCWF 190555Z 18014G17KT 7SM OVC007 20/19 A2984 RMK AO2 LTG DSNT N T01970187 10203 20188 402030095 PWINO
KCWF 190535Z 18012G18KT 7SM OVC007 20/19 A2985 RMK AO2 T01960186 PWINO
KCWF 190515Z 18012G17KT 7SM OVC007 20/19 A2985 RMK AO2 T01960186 PWINO
KCWF 190455Z 18012G17KT 140V210 10SM OVC007 20/19 A2985 RMK AO2 T01970187 PWINO
KCWF 190435Z 18014G18KT 10SM OVC007 20/19 A2985 RMK AO2 T01980188 PWINO
KCWF 190415Z 17013G21KT 7SM OVC007 20/19 A2984 RMK AO2 LTG DSNT N T01960187 PWINO
KCWF 190355Z 18016G23KT 7SM BKN011 OVC050 20/18 A2987 RMK LAST
KCWF 182350Z 14013G18KT 10SM OVC007 19/18 A2987
KCWF 182255Z 14016G19KT 10SM OVC009 19/17 A2989
KCWF 182145Z 15010G14KT 10SM OVC009 19/17 A2993
KCWF 182045Z 14008KT 10SM OVC009 18/15 A2996
KCWF 181947Z 16007KT 10SM OVC009 18/16 A2998
KCWF 181855Z 17005KT 7SM OVC007 17/16 A3001
KCWF 181747Z 00000KT 5SM BR OVC003 16/16 A3007
KCWF 181647Z 21006KT 4SM BR OVC003 15/15 A3010
KCWF 181547Z 16005KT 1SM BR OVC003 15/15 A3010
KCWF 181455Z 00000KT 1/4SM FG VV002 13/13 A3009
KCWF 181350Z 00000KT 1/4SM FG VV001 12/12 A3009
KCWF 181255Z 00000KT 1/4SM FG VV001 11/11 A3009
KCWF 181200Z 00000KT 1/4SM FG OVC100 10/10 A3009
KCWF 181135Z 00000KT 1/2SM OVC001 10/10 A3008 RMK AO2 T01050105 PWINO
KCWF 181115Z 00000KT 1/4SM OVC001 10/10 A3009 RMK AO2 T01040104 PWINO
KCWF 181055Z 00000KT 1/4SM OVC001 10/10 A3009 RMK AO2 T01030103 PWINO
KCWF 181035Z 16003KT 1/4SM OVC001 10/10 A3010 RMK AO2 T00970097 PWINO
KCWF 181015Z 00000KT 1/2SM OVC001 10/10 A3010 RMK AO2 T01000100 PWINO
KCWF 180955Z 00000KT 1/2SM OVC001 10/10 A3011 RMK AO2 T00960096 PWINO
KCWF 180935Z 00000KT 1/2SM OVC001 10/10 A3011 RMK AO2 T00980098 PWINO
KCWF 180915Z 00000KT 1/2SM OVC001 11/11 A3011 RMK AO2 T01060106 PWINO
KCWF 180855Z 00000KT 3/4SM OVC001 10/10 A3011 RMK AO2 T01030103 PWINO
KCWF 180835Z 00000KT 1/2SM OVC001 11/11 A3011 RMK AO2 T01080108 PWINO
KCWF 180815Z 00000KT 1/2SM OVC001 10/10 A3011 RMK AO2 T01050105 PWINO
KCWF 180755Z 00000KT 1/2SM OVC001 11/11 A3011 RMK AO2 T01130113 PWINO
KCWF 180735Z 00000KT 1/4SM OVC001 12/12 A3012 RMK AO2 T01170117 PWINO
KCWF 180715Z 00000KT 1/4SM OVC001 11/11 A3012 RMK AO2 T01140114 PWINO
KCWF 180655Z 00000KT 1/2SM OVC001 11/11 A3012 RMK AO2 T01090109 PWINO
KCWF 180635Z 00000KT 1/2SM OVC001 11/11 A3013 RMK AO2 T01130113 PWINO
KCWF 180615Z 00000KT 1/2SM OVC001 11/11 A3013 RMK AO2 T01110111 PWINO
KCWF 180555Z 00000KT 1/4SM OVC001 11/11 A3013 RMK AO2 T01140113 10161 20113 402100113 PWINO
KCWF 180535Z 00000KT 1/4SM OVC001 12/12 A3013 RMK AO2 T01200120 PWINO
KCWF 180515Z 00000KT 1/4SM OVC001 12/12 A3014 RMK AO2 T01230123 PWINO
KCWF 180455Z 00000KT 1/4SM OVC001 11/11 A3014 RMK AO2 T01150115 PWINO
KCWF 180435Z 12004KT 1/4SM OVC001 11/11 A3013 RMK AO2 T01150114 PWINO
KCWF 180415Z 00000KT 1/4SM OVC001 12/12 A3012 RMK AO2 T01180117 PWINO
KCWF 180345Z 00000KT 1/4SM FG OVC100 12/12 A3012 RMK LAST
KCWF 172350Z 22006KT 10SM SKC 16/15 A3009
KCWF 172255Z 23006KT 10SM SCT017 18/15 A3007